createdAt,value
2018-01-10T00:01:14.034Z,78.70
2018-01-10T00:03:45.215Z,78.60
2018-01-10T00:06:16.649Z,79.00
2018-01-10T00:08:47.678Z,78.80
2018-01-10T00:11:18.951Z,78.70
2018-01-10T00:13:49.935Z,78.90
2018-01-10T00:16:21.790Z,79.30
2018-01-10T00:18:53.780Z,79.70
2018-01-10T00:21:25.512Z,80.00
2018-01-10T00:23:56.488Z,80.00
2018-01-10T00:26:27.382Z,80.30
2018-01-10T00:28:58.258Z,80.50
2018-01-10T00:31:29.491Z,81.00
2018-01-10T00:34:00.386Z,81.40
2018-01-10T00:36:31.249Z,81.20
2018-01-10T00:39:03.056Z,80.70
2018-01-10T00:41:34.283Z,80.70
2018-01-10T00:44:05.323Z,80.50
2018-01-10T00:46:36.261Z,80.10
2018-01-10T00:49:07.316Z,79.50
2018-01-10T00:51:38.141Z,79.30
2018-01-10T00:54:09.224Z,79.40
2018-01-10T00:56:40.129Z,79.10
2018-01-10T00:59:11.817Z,78.80
2018-01-10T01:01:42.678Z,78.70
2018-01-10T01:04:14.345Z,78.40
2018-01-10T01:06:45.196Z,78.40
2018-01-10T01:09:16.497Z,78.10
2018-01-10T01:11:48.125Z,77.90
2018-01-10T01:14:18.737Z,77.80
2018-01-10T01:16:49.666Z,78.20
2018-01-10T01:19:20.468Z,78.10
2018-01-10T01:21:51.237Z,78.40
2018-01-10T01:24:22.269Z,77.90
2018-01-10T01:26:53.057Z,77.90
2018-01-10T01:29:23.854Z,78.20
2018-01-10T01:31:54.815Z,77.80
2018-01-10T01:34:25.710Z,79.20
2018-01-10T01:36:56.533Z,79.10
2018-01-10T01:39:28.471Z,78.90
2018-01-10T01:41:59.322Z,78.90
2018-01-10T01:44:30.246Z,79.30
2018-01-10T01:47:01.300Z,78.60
2018-01-10T01:49:32.713Z,79.40
2018-01-10T01:52:03.496Z,79.30
2018-01-10T01:54:35.232Z,79.10
2018-01-10T01:57:06.065Z,79.20
2018-01-10T01:59:36.825Z,79.00
2018-01-10T02:02:08.565Z,78.60
2018-01-10T02:04:39.206Z,78.60
2018-01-10T02:07:10.874Z,78.40
2018-01-10T02:09:42.382Z,78.10
2018-01-10T02:12:13.457Z,78.00
2018-01-10T02:14:44.542Z,78.20
2018-01-10T02:17:15.362Z,78.70
2018-01-10T02:19:46.134Z,78.80
2018-01-10T02:22:17.242Z,78.80
2018-01-10T02:24:48.254Z,79.00
2018-01-10T02:27:20.392Z,79.50
2018-01-10T02:29:51.538Z,79.40
2018-01-10T02:32:22.546Z,79.20
2018-01-10T02:34:53.346Z,79.30
2018-01-10T02:38:38.936Z,79.20
2018-01-10T02:41:09.993Z,79.30
2018-01-10T02:43:40.844Z,79.90
2018-01-10T02:46:12.021Z,79.90
2018-01-10T02:48:43.472Z,79.10
2018-01-10T02:51:15.039Z,79.00
2018-01-10T02:53:46.909Z,79.30
2018-01-10T02:56:17.669Z,79.20
2018-01-10T02:58:48.372Z,79.10
2018-01-10T03:01:20.232Z,78.70
2018-01-10T03:03:51.280Z,78.70
2018-01-10T03:06:22.009Z,78.70
2018-01-10T03:08:52.982Z,78.40
2018-01-10T03:11:23.674Z,79.00
2018-01-10T03:13:55.204Z,79.40
2018-01-10T03:16:26.917Z,79.40
2018-01-10T03:18:57.548Z,79.40
2018-01-10T03:21:28.200Z,78.70
2018-01-10T03:23:58.963Z,78.70
2018-01-10T03:26:29.911Z,78.40
2018-01-10T03:29:01.443Z,79.00
2018-01-10T03:31:32.097Z,79.00
2018-01-10T03:34:02.803Z,78.60
2018-01-10T03:36:33.935Z,79.10
2018-01-10T03:39:04.725Z,78.60
2018-01-10T03:41:35.477Z,79.00
2018-01-10T03:44:07.159Z,78.70
2018-01-10T03:46:38.138Z,78.40
2018-01-10T03:49:08.862Z,78.40
2018-01-10T03:51:39.836Z,78.50
2018-01-10T03:54:10.520Z,78.80
2018-01-10T03:56:41.205Z,79.10
2018-01-10T03:59:11.936Z,79.20
2018-01-10T04:01:43.057Z,79.10
2018-01-10T04:04:14.300Z,79.20
2018-01-10T04:06:45.129Z,79.50
2018-01-10T04:09:16.020Z,79.90
2018-01-10T04:11:46.828Z,81.20
2018-01-10T04:14:17.526Z,81.20
2018-01-10T04:16:48.922Z,82.40
2018-01-10T04:19:19.597Z,82.40
2018-01-10T04:21:50.469Z,83.40
2018-01-10T04:24:21.107Z,83.60
2018-01-10T04:26:51.747Z,84.20
2018-01-10T04:29:23.110Z,84.90
2018-01-10T04:31:54.844Z,83.90
2018-01-10T04:34:25.472Z,83.70
2018-01-10T04:36:56.176Z,83.50
2018-01-10T04:39:27.268Z,83.60
2018-01-10T04:41:58.781Z,83.70
2018-01-10T04:44:29.905Z,83.50
2018-01-10T04:47:01.044Z,83.70
2018-01-10T04:49:31.741Z,83.70
2018-01-10T04:52:03.193Z,84.00
2018-01-10T04:54:34.943Z,84.00
2018-01-10T04:57:05.845Z,83.90
2018-01-10T04:59:36.497Z,83.80
2018-01-10T05:02:07.581Z,83.70
2018-01-10T05:04:39.456Z,82.60
2018-01-10T05:07:10.130Z,82.60
2018-01-10T05:09:40.761Z,82.30
2018-01-10T05:12:11.844Z,82.40
2018-01-10T05:14:43.414Z,82.30
2018-01-10T05:17:14.169Z,82.20
2018-01-10T05:19:45.368Z,82.10
2018-01-10T05:22:16.197Z,82.40
2018-01-10T05:24:46.969Z,82.20
2018-01-10T05:27:17.863Z,82.10
2018-01-10T05:29:49.499Z,82.60
2018-01-10T05:32:20.259Z,82.50
2018-01-10T05:34:50.963Z,82.90
2018-01-10T05:37:21.951Z,82.90
2018-01-10T05:39:55.045Z,82.50
2018-01-10T05:42:25.877Z,82.20
2018-01-10T05:44:57.264Z,82.10
2018-01-10T05:47:28.056Z,81.90
2018-01-10T05:49:59.048Z,82.60
2018-01-10T05:52:30.034Z,82.30
2018-01-10T05:55:01.118Z,82.40
2018-01-10T05:57:31.746Z,82.10
2018-01-10T06:00:02.754Z,82.00
2018-01-10T06:02:33.537Z,82.00
2018-01-10T06:05:05.380Z,81.70
2018-01-10T06:07:36.000Z,81.60
2018-01-10T06:10:06.697Z,82.10
2018-01-10T06:12:37.852Z,82.30
2018-01-10T06:15:09.421Z,83.00
2018-01-10T06:17:40.075Z,82.40
2018-01-10T06:20:10.997Z,81.90
2018-01-10T06:22:41.590Z,82.00
2018-01-10T06:25:12.398Z,82.20
2018-01-10T06:27:43.450Z,82.10
2018-01-10T06:30:16.682Z,82.40
2018-01-10T06:32:48.534Z,82.40
2018-01-10T06:35:19.929Z,83.70
2018-01-10T06:37:51.677Z,81.60
2018-01-10T06:40:30.685Z,81.60
2018-01-10T06:43:03.213Z,82.30
2018-01-10T06:45:34.637Z,82.20
2018-01-10T06:48:05.398Z,82.30
2018-01-10T06:50:36.176Z,83.50
2018-01-10T06:53:08.042Z,83.40
2018-01-10T06:55:42.102Z,83.70
2018-01-10T06:58:15.478Z,84.10
2018-01-10T07:00:46.604Z,84.00
2018-01-10T07:03:18.157Z,84.00
2018-01-10T07:05:50.188Z,83.80
2018-01-10T07:08:44.330Z,83.40
2018-01-10T07:11:16.029Z,83.70
2018-01-10T07:13:46.899Z,84.40
2018-01-10T07:16:17.673Z,83.90
2018-01-10T07:18:49.279Z,84.40
2018-01-10T07:21:20.072Z,84.10
2018-01-10T07:23:51.965Z,84.40
2018-01-10T07:26:23.123Z,84.30
2018-01-10T07:28:56.409Z,83.70
2018-01-10T07:31:27.241Z,83.70
2018-01-10T07:33:58.938Z,83.50
2018-01-10T07:36:31.105Z,83.80
2018-01-10T07:39:05.959Z,84.30
2018-01-10T07:41:44.786Z,84.70
2018-01-10T07:44:16.349Z,85.30
2018-01-10T07:49:38.190Z,87.60
2018-01-10T07:55:00.022Z,87.80
2018-01-10T07:57:30.714Z,88.10
2018-01-10T08:00:02.495Z,88.30
2018-01-10T08:02:33.593Z,88.20
2018-01-10T08:05:05.188Z,86.90
2018-01-10T08:07:41.005Z,86.80
2018-01-10T08:10:14.975Z,86.60
2018-01-10T08:12:46.402Z,86.60
2018-01-10T08:15:17.062Z,86.00
2018-01-10T08:17:50.544Z,85.70
2018-01-10T08:20:22.496Z,85.60
2018-01-10T08:22:53.344Z,84.60
2018-01-10T08:25:24.359Z,85.00
2018-01-10T08:27:55.025Z,84.60
2018-01-10T08:30:25.796Z,84.90
2018-01-10T08:32:56.988Z,85.80
2018-01-10T08:35:28.001Z,85.20
2018-01-10T08:37:58.826Z,85.20
2018-01-10T08:40:29.525Z,85.80
2018-01-10T08:43:00.741Z,85.50
2018-01-10T08:45:32.483Z,85.50
2018-01-10T08:48:03.446Z,85.60
2018-01-10T08:50:49.459Z,85.60
2018-01-10T08:53:20.815Z,85.40
2018-01-10T08:55:56.232Z,84.50
2018-01-10T08:58:31.165Z,84.30
2018-01-10T09:01:15.286Z,84.60
2018-01-10T09:03:53.409Z,84.30
2018-01-10T09:06:24.593Z,84.00
2018-01-10T09:08:56.917Z,84.20
2018-01-10T09:11:27.673Z,84.20
2018-01-10T09:14:00.325Z,83.70
2018-01-10T09:16:33.398Z,83.70
2018-01-10T09:19:05.601Z,82.60
2018-01-10T09:21:36.412Z,82.60
2018-01-10T09:24:07.557Z,82.20
2018-01-10T09:26:38.735Z,82.40
2018-01-10T09:29:10.185Z,81.10
2018-01-10T09:31:42.661Z,81.00
2018-01-10T09:34:13.588Z,81.00
2018-01-10T09:36:45.011Z,79.90
2018-01-10T09:39:15.776Z,79.90
2018-01-10T09:41:46.660Z,79.60
2018-01-10T09:44:17.392Z,79.30
2018-01-10T09:46:48.137Z,78.60
2018-01-10T09:49:18.808Z,78.70
2018-01-10T09:51:49.289Z,79.10
2018-01-10T09:54:20.404Z,77.90
2018-01-10T09:56:51.090Z,77.90
2018-01-10T09:59:21.430Z,77.90
2018-01-10T10:01:51.748Z,78.00
2018-01-10T10:04:22.419Z,78.60
2018-01-10T10:06:52.765Z,79.10
2018-01-10T10:09:23.220Z,79.20
2018-01-10T10:11:54.142Z,79.00
2018-01-10T10:14:24.517Z,79.40
2018-01-10T10:16:54.865Z,79.80
2018-01-10T10:19:25.561Z,80.10
2018-01-10T10:21:55.905Z,79.80
2018-01-10T10:24:26.969Z,79.40
2018-01-10T10:26:57.886Z,80.00
2018-01-10T10:29:28.704Z,79.80
2018-01-10T10:31:59.387Z,80.50
2018-01-10T10:34:30.118Z,80.10
2018-01-10T10:37:01.244Z,80.80
2018-01-10T10:39:32.341Z,80.00
2018-01-10T10:42:02.688Z,80.00
2018-01-10T10:44:34.103Z,80.00
2018-01-10T10:47:04.565Z,80.00
2018-01-10T10:49:34.874Z,79.20
2018-01-10T10:52:05.406Z,79.30
2018-01-10T10:54:35.804Z,78.20
2018-01-10T10:57:06.390Z,77.30
2018-01-10T10:59:37.490Z,76.60
2018-01-10T11:02:07.922Z,76.50
2018-01-10T11:04:38.507Z,76.50
2018-01-10T11:07:08.874Z,75.40
2018-01-10T11:09:39.233Z,74.90
2018-01-10T11:12:10.652Z,73.70
2018-01-10T11:14:41.030Z,73.70
2018-01-10T11:17:11.443Z,74.20
2018-01-10T11:19:42.077Z,73.80
2018-01-10T11:22:12.583Z,73.90
2018-01-10T11:24:43.706Z,73.30
2018-01-10T11:27:14.345Z,73.30
2018-01-10T11:29:44.679Z,72.40
2018-01-10T11:32:15.838Z,72.30
2018-01-10T11:34:46.465Z,72.20
2018-01-10T11:37:16.918Z,72.70
2018-01-10T11:39:47.296Z,71.90
2018-01-10T11:42:18.816Z,72.00
2018-01-10T11:44:49.200Z,71.20
2018-01-10T11:47:19.575Z,70.40
2018-01-10T11:49:49.897Z,70.40
2018-01-10T11:52:20.291Z,70.10
2018-01-10T11:54:50.810Z,69.60
2018-01-10T11:57:21.135Z,69.70
2018-01-10T11:59:51.498Z,69.40
2018-01-10T12:02:22.978Z,69.20
2018-01-10T12:04:54.116Z,69.40
2018-01-10T12:07:24.473Z,69.40
2018-01-10T12:09:55.244Z,69.00
2018-01-10T12:12:25.645Z,67.80
2018-01-10T12:14:55.988Z,68.70
2018-01-10T12:17:26.597Z,68.50
2018-01-10T12:19:56.937Z,68.80
2018-01-10T12:22:27.277Z,68.60
2018-01-10T12:24:58.207Z,68.00
2018-01-10T12:27:28.758Z,69.10
2018-01-10T12:29:59.108Z,69.50
2018-01-10T12:32:30.517Z,70.00
2018-01-10T12:35:00.902Z,69.90
2018-01-10T12:37:31.260Z,70.80
2018-01-10T12:40:02.229Z,71.00
2018-01-10T12:42:32.725Z,70.40
2018-01-10T12:45:03.217Z,71.40
2018-01-10T12:47:34.102Z,71.90
2018-01-10T12:50:04.793Z,72.20
2018-01-10T12:52:36.196Z,72.20
2018-01-10T12:55:06.884Z,72.20
2018-01-10T12:57:37.522Z,72.40
2018-01-10T13:00:08.026Z,72.50
2018-01-10T13:02:38.878Z,73.20
2018-01-10T13:05:09.465Z,73.60
2018-01-10T13:07:39.921Z,73.00
2018-01-10T13:10:10.762Z,72.50
2018-01-10T13:12:41.438Z,73.30
2018-01-10T13:15:12.037Z,73.40
2018-01-10T13:17:42.498Z,74.00
2018-01-10T13:20:13.301Z,74.60
2018-01-10T13:22:43.703Z,75.10
2018-01-10T13:25:14.059Z,75.50
2018-01-10T13:27:44.684Z,75.60
2018-01-10T13:30:15.146Z,75.90
2018-01-10T13:32:46.362Z,76.70
2018-01-10T13:35:17.012Z,76.70
2018-01-10T13:37:47.374Z,76.60
2018-01-10T13:40:17.749Z,75.80
2018-01-10T13:42:48.418Z,76.60
2018-01-10T13:45:18.874Z,76.90
2018-01-10T13:47:50.122Z,77.00
2018-01-10T13:50:20.881Z,77.00
2018-01-10T13:52:51.230Z,76.60
2018-01-10T13:55:22.681Z,77.30
2018-01-10T13:57:53.462Z,77.30
2018-01-10T14:00:23.777Z,77.40
2018-01-10T14:02:55.014Z,77.40
2018-01-10T14:05:25.483Z,77.40
2018-01-10T14:07:56.658Z,78.80
2018-01-10T14:10:28.067Z,78.90
2018-01-10T14:12:58.445Z,78.70
2018-01-10T14:15:29.538Z,78.80
2018-01-10T14:18:00.294Z,78.90
2018-01-10T14:20:30.726Z,78.90
2018-01-10T14:23:01.877Z,79.10
2018-01-10T14:25:32.979Z,78.60
2018-01-10T14:28:03.787Z,78.60
2018-01-10T14:30:34.155Z,78.50
2018-01-10T14:33:04.527Z,78.60
2018-01-10T14:35:35.156Z,79.00
2018-01-10T14:38:05.749Z,78.90
2018-01-10T14:40:36.162Z,78.70
2018-01-10T14:43:06.884Z,79.20
2018-01-10T14:45:37.222Z,78.20
2018-01-10T14:48:07.651Z,78.60
2018-01-10T14:50:38.477Z,78.50
2018-01-10T14:53:08.854Z,79.00
2018-01-10T14:55:39.355Z,79.30
2018-01-10T14:58:10.145Z,79.20
2018-01-10T15:00:40.697Z,79.80
2018-01-10T15:03:11.929Z,79.60
2018-01-10T15:05:42.548Z,79.60
2018-01-10T15:08:13.343Z,80.30
2018-01-10T15:10:43.697Z,80.70
2018-01-10T15:13:15.236Z,80.50
2018-01-10T15:15:45.837Z,81.10
2018-01-10T15:18:16.230Z,81.60
2018-01-10T15:20:46.616Z,81.70
2018-01-10T15:23:17.049Z,82.00
2018-01-10T15:25:47.685Z,82.20
2018-01-10T15:28:18.085Z,82.60
2018-01-10T15:30:48.592Z,82.50
2018-01-10T15:33:27.206Z,82.60
2018-01-10T15:35:58.485Z,82.90
2018-01-10T15:38:29.101Z,82.80
2018-01-10T15:40:59.754Z,82.70
2018-01-10T15:43:30.121Z,82.70
2018-01-10T15:46:01.106Z,82.80
2018-01-10T15:48:31.579Z,82.90
2018-01-10T15:51:01.964Z,83.60
2018-01-10T15:53:33.556Z,83.60
2018-01-10T15:56:04.075Z,83.70
2018-01-10T15:58:34.685Z,83.60
2018-01-10T16:01:05.504Z,83.70
2018-01-10T16:03:35.873Z,84.30
2018-01-10T16:06:06.361Z,84.00
2018-01-10T16:11:44.107Z,84.30
2018-01-10T16:14:15.028Z,84.30
2018-01-10T16:16:45.774Z,84.40
2018-01-10T16:19:16.215Z,84.60
2018-01-10T16:22:00.771Z,84.60
2018-01-10T16:24:43.291Z,84.60
2018-01-10T16:27:14.230Z,84.40
2018-01-10T16:29:45.444Z,84.90
2018-01-10T16:32:15.932Z,84.90
2018-01-10T16:34:46.731Z,85.10
2018-01-10T16:37:18.143Z,85.40
2018-01-10T16:39:48.653Z,85.40
2018-01-10T16:42:19.535Z,84.50
2018-01-10T16:44:57.375Z,84.60
2018-01-10T16:47:28.205Z,84.50
2018-01-10T16:49:59.441Z,84.70
2018-01-10T16:52:30.033Z,84.60
2018-01-10T16:55:00.811Z,85.00
2018-01-10T16:57:31.327Z,85.40
2018-01-10T17:00:02.434Z,85.60
2018-01-10T17:02:33.185Z,85.50
2018-01-10T17:05:03.726Z,85.80
2018-01-10T17:07:34.974Z,86.20
2018-01-10T17:10:06.582Z,85.80
2018-01-10T17:12:37.131Z,85.80
2018-01-10T17:15:07.846Z,86.00
2018-01-10T17:17:38.362Z,85.80
2018-01-10T17:20:09.197Z,85.80
2018-01-10T17:22:40.338Z,85.80
2018-01-10T17:25:10.877Z,85.90
2018-01-10T17:27:41.570Z,85.80
2018-01-10T17:30:12.439Z,85.80
2018-01-10T17:32:42.924Z,86.00
2018-01-10T17:35:13.436Z,86.10
2018-01-10T17:37:44.914Z,85.40
2018-01-10T17:40:16.430Z,85.70
2018-01-10T17:42:47.156Z,85.70
2018-01-10T17:45:18.056Z,85.70
2018-01-10T17:47:50.001Z,86.20
2018-01-10T17:50:20.799Z,86.20
2018-01-10T17:52:52.196Z,86.10
2018-01-10T17:55:23.207Z,85.60
2018-01-10T17:57:53.812Z,85.40
2018-01-10T18:00:24.621Z,85.80
2018-01-10T18:02:55.769Z,86.00
2018-01-10T18:05:27.527Z,85.80
2018-01-10T18:07:58.857Z,85.70
2018-01-10T18:10:30.384Z,86.10
2018-01-10T18:13:01.005Z,86.00
2018-01-10T18:15:31.949Z,86.30
2018-01-10T18:18:02.804Z,86.20
2018-01-10T18:20:33.726Z,85.80
2018-01-10T18:23:05.590Z,85.60
2018-01-10T18:25:36.499Z,85.50
2018-01-10T18:28:07.773Z,85.70
2018-01-10T18:30:39.235Z,86.30
2018-01-10T18:33:10.571Z,86.90
2018-01-10T18:35:41.484Z,87.20
2018-01-10T18:38:12.769Z,87.50
2018-01-10T18:40:44.525Z,87.00
2018-01-10T18:43:15.955Z,87.00
2018-01-10T18:45:46.974Z,87.60
2018-01-10T18:48:20.101Z,87.40
2018-01-10T18:50:51.839Z,87.70
2018-01-10T18:53:23.870Z,87.30
2018-01-10T18:55:55.947Z,87.20
2018-01-10T18:58:29.716Z,87.20
2018-01-10T19:01:02.167Z,87.40
2018-01-10T19:03:33.897Z,87.80
2018-01-10T19:06:06.799Z,87.80
2018-01-10T19:08:42.467Z,87.60
2018-01-10T19:11:14.705Z,87.60
2018-01-10T19:13:46.769Z,87.60
2018-01-10T19:16:18.066Z,87.70
2018-01-10T19:18:49.630Z,87.90
2018-01-10T19:21:21.271Z,88.10
2018-01-10T19:23:52.454Z,88.20
2018-01-10T19:26:24.234Z,88.20
2018-01-10T19:28:57.708Z,87.90
2018-01-10T19:31:32.842Z,87.90
2018-01-10T19:34:08.146Z,87.90
2018-01-10T19:36:43.155Z,88.10
2018-01-10T19:39:17.263Z,88.00
2018-01-10T19:41:50.426Z,87.80
2018-01-10T19:44:23.675Z,87.90
2018-01-10T19:46:55.791Z,87.70
2018-01-10T19:49:28.050Z,87.80
2018-01-10T19:51:59.937Z,87.40
2018-01-10T19:54:33.158Z,87.40
2018-01-10T19:57:07.530Z,87.80
2018-01-10T19:59:39.322Z,87.90
2018-01-10T20:02:11.757Z,87.80
2018-01-10T20:04:43.282Z,87.80
2018-01-10T20:07:14.930Z,87.80
2018-01-10T20:09:47.243Z,87.60
2018-01-10T20:12:18.757Z,87.60
2018-01-10T20:14:52.016Z,87.90
2018-01-10T20:17:25.847Z,87.90
2018-01-10T20:19:58.338Z,87.90
2018-01-10T20:22:31.565Z,88.00
2018-01-10T20:25:03.202Z,88.20
2018-01-10T20:27:35.518Z,87.90
2018-01-10T20:30:07.279Z,88.00
2018-01-10T20:32:39.415Z,87.60
2018-01-10T20:35:12.880Z,87.90
2018-01-10T20:37:45.878Z,87.70
2018-01-10T20:40:18.108Z,87.70
2018-01-10T20:42:54.725Z,87.80
2018-01-10T20:45:26.569Z,87.60
2018-01-10T20:48:00.461Z,87.70
2018-01-10T20:50:32.347Z,88.00
2018-01-10T20:53:03.989Z,88.00
2018-01-10T20:55:36.617Z,88.40
2018-01-10T20:58:08.202Z,88.30
2018-01-10T21:00:39.879Z,88.10
2018-01-10T21:03:12.013Z,88.00
2018-01-10T21:05:43.295Z,88.00
2018-01-10T21:08:14.922Z,88.20
2018-01-10T21:10:46.383Z,88.20
2018-01-10T21:13:19.689Z,88.20
2018-01-10T21:15:51.245Z,88.20
2018-01-10T21:18:22.617Z,88.10
2018-01-10T21:20:55.028Z,87.70
2018-01-10T21:23:27.348Z,87.70
2018-01-10T21:25:59.103Z,87.80
2018-01-10T21:28:30.621Z,88.00
2018-01-10T21:31:02.278Z,88.40
2018-01-10T21:33:34.759Z,88.50
2018-01-10T21:36:07.498Z,88.40
2018-01-10T21:38:39.935Z,88.40
2018-01-10T21:41:11.552Z,89.20
2018-01-10T21:43:44.175Z,88.50
2018-01-10T21:46:16.515Z,88.70
2018-01-10T21:48:48.769Z,88.60
2018-01-10T21:51:20.228Z,88.50
2018-01-10T21:53:52.090Z,88.30
2018-01-10T21:56:23.731Z,88.50
2018-01-10T21:58:55.803Z,88.30
2018-01-10T22:01:27.992Z,88.60
2018-01-10T22:04:00.191Z,88.30
2018-01-10T22:06:31.497Z,88.30
2018-01-10T22:09:03.843Z,88.30
2018-01-10T22:11:35.403Z,88.40
2018-01-10T22:14:06.495Z,88.30
2018-01-10T22:16:37.957Z,88.20
2018-01-10T22:19:10.159Z,88.40
2018-01-10T22:21:41.140Z,88.40
2018-01-10T22:24:12.384Z,88.60
2018-01-10T22:26:43.675Z,88.60
2018-01-10T22:29:15.665Z,88.40
2018-01-10T22:31:48.105Z,88.40
2018-01-10T22:34:19.524Z,88.60
2018-01-10T22:36:50.810Z,88.80
2018-01-10T22:39:22.397Z,88.90
2018-01-10T22:41:54.613Z,89.60
2018-01-10T22:44:27.361Z,90.10
2018-01-10T22:46:59.765Z,90.20
2018-01-10T22:49:31.427Z,90.60
2018-01-10T22:52:03.073Z,90.60
2018-01-10T22:54:38.806Z,90.70
2018-01-10T22:57:24.332Z,90.70
2018-01-10T23:00:02.445Z,90.50
2018-01-10T23:02:36.257Z,90.40
2018-01-10T23:05:12.235Z,90.40
2018-01-10T23:07:44.681Z,90.50
2018-01-10T23:10:16.813Z,90.50
2018-01-10T23:12:54.436Z,90.50
2018-01-10T23:15:27.726Z,90.50
2018-01-10T23:18:07.285Z,90.60
2018-01-10T23:20:43.237Z,90.60
2018-01-10T23:23:15.750Z,90.60
2018-01-10T23:25:48.264Z,90.40
2018-01-10T23:28:19.890Z,90.50
2018-01-10T23:30:57.345Z,90.30
2018-01-10T23:33:30.045Z,90.40
2018-01-10T23:36:01.682Z,90.50
2018-01-10T23:38:33.210Z,90.60
2018-01-10T23:41:06.615Z,90.50
2018-01-10T23:43:41.196Z,90.30
2018-01-10T23:46:13.569Z,90.30
2018-01-10T23:48:44.518Z,90.40
2018-01-10T23:51:15.914Z,90.20
2018-01-10T23:53:47.669Z,90.50
2018-01-10T23:56:19.602Z,90.30
2018-01-10T23:58:51.686Z,90.40
